IBB368 GCLP-GCHI
Flight info
| Callsign | IBB368 |
|---|---|
| Flight time | N/A |
| Altitude | 12000 |
| Route | HIE |
| Aircraft | AT76/M-SDE2E3FGHIRWXY/LB1 |
Departure
| Time | 2026-04-27 20:35 |
|---|---|
| Airport | Gran Canaria Airport (GCLP) |
Arrival
| Time | N/A |
|---|---|
| Airport | El Hierro Airport (GCHI) |
| Time | Latitude | Longitude | Altitude | Speed | Heading |
|---|---|---|---|---|---|
| 2026-04-27 20:24 | 27.93264 | -15.38886 | 85 ft | 0 kts | 290° |
| 2026-04-27 20:29 | 27.93265 | -15.38886 | 85 ft | 0 kts | 290° |
| 2026-04-27 20:30 | 27.93267 | -15.38890 | 85 ft | 2 kts | 308° |
| 2026-04-27 20:31 | 27.93284 | -15.38890 | 85 ft | 3 kts | 38° |
| 2026-04-27 20:31 | 27.93289 | -15.38851 | 85 ft | 8 kts | 104° |
| 2026-04-27 20:31 | 27.93303 | -15.38800 | 85 ft | 9 kts | 31° |
| 2026-04-27 20:31 | 27.93360 | -15.38773 | 85 ft | 7 kts | 22° |
| 2026-04-27 20:32 | 27.93357 | -15.38749 | 85 ft | 4 kts | 169° |
| 2026-04-27 20:32 | 27.93325 | -15.38745 | 85 ft | 5 kts | 178° |
| 2026-04-27 20:32 | 27.93283 | -15.38745 | 85 ft | 7 kts | 180° |
| 2026-04-27 20:32 | 27.93231 | -15.38745 | 85 ft | 8 kts | 178° |
| 2026-04-27 20:33 | 27.93170 | -15.38743 | 85 ft | 9 kts | 178° |
| 2026-04-27 20:33 | 27.93101 | -15.38744 | 85 ft | 11 kts | 181° |
| 2026-04-27 20:33 | 27.93067 | -15.38713 | 85 ft | 8 kts | 36° |
| 2026-04-27 20:33 | 27.93080 | -15.38706 | 85 ft | 0 kts | 20° |
| 2026-04-27 20:34 | 27.93206 | -15.38651 | 85 ft | 58 kts | 23° |
| 2026-04-27 20:34 | 27.93785 | -15.38395 | 102 ft | 114 kts | 20° |
| 2026-04-27 20:34 | 27.94559 | -15.38077 | 576 ft | 124 kts | 19° |
| 2026-04-27 20:35 | 27.95470 | -15.37689 | 881 ft | 154 kts | 20° |
| 2026-04-27 20:35 | 27.96515 | -15.37223 | 1322 ft | 170 kts | 20° |
| 2026-04-27 20:35 | 27.97571 | -15.36656 | 1911 ft | 167 kts | 30° |
| 2026-04-27 20:35 | 27.98173 | -15.35555 | 2335 ft | 171 kts | 70° |
| 2026-04-27 20:36 | 27.98021 | -15.34191 | 2671 ft | 182 kts | 109° |
| 2026-04-27 20:36 | 27.97134 | -15.33163 | 3056 ft | 186 kts | 145° |
| 2026-04-27 20:36 | 27.96001 | -15.32439 | 3462 ft | 190 kts | 150° |
| 2026-04-27 20:36 | 27.94849 | -15.31709 | 3902 ft | 190 kts | 150° |
| 2026-04-27 20:37 | 27.93605 | -15.31189 | 4297 ft | 192 kts | 173° |
| 2026-04-27 20:37 | 27.92363 | -15.31560 | 4770 ft | 186 kts | 210° |
| 2026-04-27 20:37 | 27.91568 | -15.32654 | 5161 ft | 182 kts | 246° |
| 2026-04-27 20:37 | 27.91217 | -15.34033 | 5541 ft | 185 kts | 263° |
| 2026-04-27 20:38 | 27.91075 | -15.35470 | 5990 ft | 185 kts | 268° |
| 2026-04-27 20:38 | 27.90964 | -15.36929 | 6432 ft | 185 kts | 268° |
| 2026-04-27 20:38 | 27.90856 | -15.38380 | 6872 ft | 186 kts | 268° |
| 2026-04-27 20:38 | 27.90746 | -15.39838 | 7259 ft | 189 kts | 268° |
| 2026-04-27 20:39 | 27.90634 | -15.41297 | 7731 ft | 187 kts | 268° |
| 2026-04-27 20:39 | 27.90518 | -15.42792 | 8133 ft | 189 kts | 268° |
| 2026-04-27 20:39 | 27.90402 | -15.44279 | 8523 ft | 191 kts | 269° |
| 2026-04-27 20:39 | 27.90276 | -15.45770 | 8903 ft | 194 kts | 268° |
| 2026-04-27 20:40 | 27.90149 | -15.47279 | 9305 ft | 193 kts | 268° |
| 2026-04-27 20:40 | 27.90023 | -15.48794 | 9707 ft | 194 kts | 268° |
| 2026-04-27 20:40 | 27.89895 | -15.50329 | 10088 ft | 195 kts | 268° |
| 2026-04-27 20:40 | 27.89766 | -15.51859 | 10455 ft | 197 kts | 268° |
| 2026-04-27 20:41 | 27.89639 | -15.53408 | 10812 ft | 198 kts | 269° |
| 2026-04-27 20:41 | 27.89783 | -15.54939 | 11174 ft | 195 kts | 284° |
| 2026-04-27 20:41 | 27.89896 | -15.56462 | 11512 ft | 198 kts | 275° |
| 2026-04-27 20:41 | 27.89874 | -15.58038 | 11851 ft | 201 kts | 272° |
| 2026-04-27 20:42 | 27.89827 | -15.59646 | 11997 ft | 211 kts | 271° |
| 2026-04-27 20:42 | 27.89779 | -15.61315 | 12068 ft | 223 kts | 271° |
| 2026-04-27 20:42 | 27.89730 | -15.63095 | 12083 ft | 234 kts | 271° |
| 2026-04-27 20:42 | 27.89683 | -15.64981 | 12085 ft | 243 kts | 271° |
| 2026-04-27 20:43 | 27.89637 | -15.66890 | 12084 ft | 249 kts | 271° |
| 2026-04-27 20:43 | 27.89591 | -15.68866 | 12083 ft | 253 kts | 271° |
| 2026-04-27 20:43 | 27.89546 | -15.70865 | 12083 ft | 256 kts | 271° |
| 2026-04-27 20:43 | 27.89501 | -15.72893 | 12083 ft | 258 kts | 271° |
| 2026-04-27 20:44 | 27.89456 | -15.74930 | 12084 ft | 260 kts | 271° |
| 2026-04-27 20:44 | 27.89408 | -15.76981 | 12086 ft | 262 kts | 271° |
| 2026-04-27 20:44 | 27.89347 | -15.79045 | 12085 ft | 263 kts | 270° |
| 2026-04-27 20:44 | 27.89280 | -15.81114 | 12085 ft | 264 kts | 270° |
| 2026-04-27 20:45 | 27.89211 | -15.83191 | 12083 ft | 265 kts | 270° |
| 2026-04-27 20:45 | 27.89142 | -15.85271 | 12084 ft | 265 kts | 270° |
| 2026-04-27 20:45 | 27.89072 | -15.87330 | 12084 ft | 265 kts | 270° |
| 2026-04-27 20:45 | 27.89000 | -15.89447 | 12084 ft | 266 kts | 270° |
| 2026-04-27 20:46 | 27.88931 | -15.91508 | 12084 ft | 266 kts | 270° |
| 2026-04-27 20:46 | 27.88864 | -15.93598 | 12082 ft | 267 kts | 270° |
| 2026-04-27 20:46 | 27.88793 | -15.95696 | 12085 ft | 267 kts | 270° |
| 2026-04-27 20:46 | 27.88721 | -15.97787 | 12086 ft | 267 kts | 270° |
| 2026-04-27 20:47 | 27.88648 | -15.99895 | 12086 ft | 267 kts | 270° |
| 2026-04-27 20:47 | 27.88577 | -16.01994 | 12086 ft | 267 kts | 270° |
| 2026-04-27 20:47 | 27.88508 | -16.04097 | 12087 ft | 267 kts | 270° |
| 2026-04-27 20:47 | 27.88437 | -16.06192 | 12085 ft | 267 kts | 270° |
| 2026-04-27 20:48 | 27.88365 | -16.08268 | 12086 ft | 267 kts | 270° |
| 2026-04-27 20:48 | 27.88316 | -16.09670 | 12086 ft | 267 kts | 270° |
| 2026-04-27 20:48 | 27.88217 | -16.12480 | 12086 ft | 267 kts | 270° |
| 2026-04-27 20:48 | 27.88144 | -16.14558 | 12087 ft | 267 kts | 270° |
| 2026-04-27 20:49 | 27.88073 | -16.16656 | 12087 ft | 267 kts | 270° |
| 2026-04-27 20:49 | 27.88000 | -16.18766 | 12087 ft | 267 kts | 270° |
| 2026-04-27 20:49 | 27.87926 | -16.20843 | 12086 ft | 267 kts | 270° |
| 2026-04-27 20:49 | 27.87851 | -16.22941 | 12084 ft | 267 kts | 270° |
| 2026-04-27 20:50 | 27.87776 | -16.25037 | 12085 ft | 267 kts | 270° |
| 2026-04-27 20:50 | 27.87702 | -16.27139 | 12085 ft | 267 kts | 269° |
| 2026-04-27 20:50 | 27.87628 | -16.29254 | 12083 ft | 268 kts | 269° |
| 2026-04-27 20:50 | 27.87554 | -16.31374 | 12084 ft | 269 kts | 269° |
| 2026-04-27 20:51 | 27.87479 | -16.33477 | 12084 ft | 269 kts | 269° |
| 2026-04-27 20:51 | 27.87404 | -16.35571 | 12085 ft | 269 kts | 269° |
| 2026-04-27 20:51 | 27.87329 | -16.37683 | 12085 ft | 269 kts | 269° |
| 2026-04-27 20:51 | 27.87254 | -16.39793 | 12086 ft | 269 kts | 269° |
| 2026-04-27 20:52 | 27.87179 | -16.41909 | 12084 ft | 269 kts | 269° |
| 2026-04-27 20:52 | 27.87102 | -16.44028 | 12082 ft | 269 kts | 269° |
| 2026-04-27 20:52 | 27.87025 | -16.46150 | 12083 ft | 269 kts | 269° |
| 2026-04-27 20:52 | 27.86948 | -16.48260 | 12082 ft | 269 kts | 269° |
| 2026-04-27 20:53 | 27.86870 | -16.50378 | 12082 ft | 269 kts | 269° |
| 2026-04-27 20:53 | 27.86792 | -16.52475 | 12082 ft | 269 kts | 269° |
| 2026-04-27 20:53 | 27.86714 | -16.54580 | 12082 ft | 269 kts | 269° |
| 2026-04-27 20:53 | 27.86636 | -16.56694 | 12082 ft | 269 kts | 269° |
| 2026-04-27 20:54 | 27.86477 | -16.60928 | 12082 ft | 269 kts | 269° |
| 2026-04-27 20:54 | 27.86401 | -16.63042 | 12082 ft | 268 kts | 270° |
| 2026-04-27 20:54 | 27.86334 | -16.65150 | 12081 ft | 268 kts | 270° |
| 2026-04-27 20:55 | 27.86271 | -16.67244 | 12080 ft | 267 kts | 269° |
| 2026-04-27 20:55 | 27.86200 | -16.69344 | 12081 ft | 268 kts | 269° |
| 2026-04-27 20:55 | 27.86122 | -16.71456 | 12082 ft | 268 kts | 269° |
| 2026-04-27 20:55 | 27.86041 | -16.73573 | 12082 ft | 269 kts | 269° |
| 2026-04-27 20:56 | 27.85960 | -16.75685 | 12082 ft | 269 kts | 269° |
| 2026-04-27 20:56 | 27.85880 | -16.77767 | 12084 ft | 269 kts | 269° |
| 2026-04-27 20:56 | 27.85801 | -16.79879 | 12083 ft | 268 kts | 270° |
| 2026-04-27 20:56 | 27.85734 | -16.81984 | 12083 ft | 268 kts | 271° |
| 2026-04-27 20:57 | 27.85669 | -16.84088 | 12083 ft | 268 kts | 270° |
| 2026-04-27 20:57 | 27.85604 | -16.86194 | 12083 ft | 268 kts | 270° |
| 2026-04-27 20:57 | 27.85543 | -16.88295 | 12083 ft | 268 kts | 270° |
| 2026-04-27 20:57 | 27.85478 | -16.90406 | 12084 ft | 268 kts | 270° |
| 2026-04-27 20:58 | 27.85413 | -16.92504 | 12086 ft | 267 kts | 271° |
| 2026-04-27 20:58 | 27.85348 | -16.94609 | 12086 ft | 267 kts | 270° |
| 2026-04-27 20:58 | 27.85282 | -16.96693 | 12083 ft | 267 kts | 270° |
| 2026-04-27 20:58 | 27.85204 | -16.98812 | 12083 ft | 268 kts | 270° |
| 2026-04-27 20:59 | 27.85130 | -17.00884 | 12084 ft | 267 kts | 270° |
| 2026-04-27 20:59 | 27.85050 | -17.02988 | 12085 ft | 268 kts | 270° |
| 2026-04-27 20:59 | 27.84973 | -17.05090 | 12083 ft | 267 kts | 270° |
| 2026-04-27 20:59 | 27.84891 | -17.07194 | 12085 ft | 267 kts | 270° |
| 2026-04-27 21:00 | 27.84815 | -17.09299 | 12084 ft | 267 kts | 270° |
| 2026-04-27 21:00 | 27.84733 | -17.11403 | 11978 ft | 271 kts | 270° |
| 2026-04-27 21:00 | 27.84650 | -17.13526 | 11830 ft | 270 kts | 270° |
| 2026-04-27 21:00 | 27.84570 | -17.15649 | 11680 ft | 269 kts | 270° |
| 2026-04-27 21:01 | 27.84493 | -17.17735 | 11530 ft | 269 kts | 270° |
| 2026-04-27 21:01 | 27.84413 | -17.19851 | 11381 ft | 269 kts | 270° |
| 2026-04-27 21:01 | 27.84385 | -17.20573 | 11329 ft | 269 kts | 270° |